Latest Weather Observations for Macquarie Island

IDT60801

Issued at 12:31 pm EST Thursday 5 May 2016 (issued every 30 minutes, with the page automatically refreshed every 10 minutes)

About weather observations | Map of weather stations | Latest weather observations for TAS | Other Formats
Station Details ID: 300004 Name: MACQUARIE ISLAND Lat: -54.50 Lon: 158.94 Height: 6.0 m
Data from the previous 72 hours. | See also: Recent months at Macquarie Island
Date/Time
EST
Temp
°C
App
Temp
°C
Dew
Point
Rel
Hum
%
Delta-T
°C
Wind Press
QNH
hPa
Press
MSL
hPa
Rain
since 9 am
mm
Dir
 
Spd
km/h
Gust
km/h
Spd
kts
Gust
kts
05/12:30pm 6.4 -9.7 4.1 85 1.0 N 78 104 42 56 974.0 - 0.0
05/12:00pm 6.8 -9.6 4.5 85 1.0 N 80 117 43 63 973.7 974.0 0.0
05/11:54am 6.9 -9.9 4.7 86 1.0 N 82 117 44 63 973.6 - 0.0
05/11:30am 7.0 -9.3 5.2 88 0.8 N 80 98 43 53 973.9 - 0.0
05/11:00am 7.6 -8.5 5.9 89 0.8 N 80 107 43 58 974.2 - 0.0
05/10:38am 7.9 -5.9 6.8 93 0.5 N 69 91 37 49 974.3 - 0.0
05/10:30am 7.5 -5.7 6.4 93 0.5 N 65 74 35 40 974.7 - 0.0
05/10:00am 7.6 -5.1 6.7 94 0.4 N 63 74 34 40 975.5 - 0.0
05/09:30am 7.4 -5.3 6.7 95 0.3 N 63 72 34 39 976.1 - 0.0
05/09:00am 7.5 -6.0 6.8 95 0.3 N 67 82 36 44 976.4 976.7 10.2
05/08:30am 6.9 -6.3 6.3 96 0.3 N 65 76 35 41 976.8 - 10.0
05/08:00am 7.1 -6.4 6.5 96 0.3 N 67 78 36 42 977.0 - 10.0
05/07:30am 7.0 -7.8 6.6 97 0.2 N 74 89 40 48 976.9 - 10.0
05/07:00am 6.9 -7.0 6.6 98 0.1 N 69 83 37 45 977.4 - 10.0
05/06:30am 6.4 -5.3 6.1 98 0.1 N 57 82 31 44 978.8 - 9.0
05/06:00am 5.8 -5.1 5.4 97 0.2 N 52 98 28 53 980.6 980.9 7.6
05/05:59am 5.8 -5.1 5.4 97 0.2 N 52 98 28 53 980.5 - 7.6
05/05:58am 5.7 -5.2 5.3 97 0.2 N 52 80 28 43 980.4 - 7.6
05/05:30am 5.3 -4.6 4.7 96 0.3 N 46 69 25 37 982.6 - 5.6
05/05:18am 5.1 -4.3 4.4 95 0.3 N 43 61 23 33 983.8 - 4.8
05/05:00am 5.2 -4.2 4.2 93 0.4 N 43 59 23 32 985.2 - 3.4
05/04:55am 5.1 -3.2 4.1 93 0.4 N 37 56 20 30 985.4 - 3.2
05/04:30am 5.2 -3.5 4.0 92 0.5 N 39 50 21 27 987.0 - 1.4
05/04:00am 5.7 -3.8 4.0 89 0.7 N 43 61 23 33 987.8 - 0.8
05/03:56am 5.8 -2.5 4.4 91 0.6 N 37 57 20 31 987.9 - 0.8
05/03:30am 5.6 -1.9 4.2 91 0.6 N 33 39 18 21 988.8 - 0.8
05/03:00am 5.6 -2.3 4.2 91 0.6 N 35 44 19 24 989.7 990.0 0.8
05/02:30am 5.4 -3.3 3.9 90 0.6 NNW 39 44 21 24 990.4 - 0.8
05/02:00am 5.6 -4.1 4.1 90 0.6 NNW 44 54 24 29 990.8 - 0.8
05/01:30am 5.5 -4.1 4.2 91 0.6 NNW 44 50 24 27 991.2 - 0.8
05/01:00am 5.4 -3.7 4.2 92 0.5 NNW 41 48 22 26 991.5 - 0.8
05/12:30am 5.2 -3.9 3.9 91 0.5 NNW 41 48 22 26 991.8 - 0.8
05/12:00am 5.1 -4.7 3.4 89 0.7 NNW 44 50 24 27 991.9 992.2 0.8
 
Date/Time
EST
Temp
°C
App
Temp
°C
Dew
Point
Rel
Hum
%
Delta-T
°C
Wind Press
QNH
hPa
Press
MSL
hPa
Rain
since 9 am
mm
Dir
 
Spd
km/h
Gust
km/h
Spd
kts
Gust
kts
04/11:30pm 5.0 -5.6 2.9 86 0.9 NNW 48 56 26 30 991.6 - 0.8
04/11:00pm 5.0 -4.3 3.2 88 0.7 NNW 41 56 22 30 991.6 - 0.8
04/10:30pm 5.4 -3.7 4.1 91 0.6 NNW 41 46 22 25 991.6 - 0.8
04/10:00pm 5.4 -4.3 3.9 90 0.6 NNW 44 52 24 28 991.3 - 0.8
04/09:30pm 5.3 -3.8 4.1 92 0.5 NNW 41 46 22 25 991.1 - 0.8
04/09:00pm 4.8 -2.7 3.6 92 0.5 NNW 32 39 17 21 991.2 991.5 0.8
04/08:30pm 4.5 -3.3 3.0 90 0.6 NNW 33 41 18 22 990.9 - 0.8
04/08:12pm 4.4 -5.9 2.9 90 0.6 NNW 46 50 25 27 990.7 - 0.8
04/08:01pm 4.9 -4.8 3.1 88 0.7 NW 43 61 23 33 990.6 - 0.4
04/08:00pm 4.9 -4.8 3.1 88 0.7 NW 43 59 23 32 990.5 - 0.4
04/07:59pm 5.0 -4.3 3.2 88 0.7 NW 41 59 22 32 990.5 - 0.4
04/07:30pm 5.2 -3.2 3.5 89 0.7 NNW 37 43 20 23 990.0 - 0.2
04/07:00pm 5.2 -2.8 4.0 92 0.5 NNW 35 39 19 21 989.7 - 0.2
04/06:30pm 5.2 -3.2 3.9 91 0.5 NNW 37 43 20 23 989.5 - 0.2
04/06:00pm 5.1 -2.9 3.9 92 0.5 NNW 35 41 19 22 988.9 989.2 0.2
04/05:30pm 5.1 -3.3 3.6 90 0.6 NNW 37 43 20 23 988.5 - 0.2
04/05:00pm 5.0 -3.0 3.7 91 0.5 NNW 35 44 19 24 988.1 - 0.2
04/04:30pm 5.5 -3.2 4.3 92 0.5 NNW 39 44 21 24 987.8 - 0.0
04/04:00pm 5.4 -2.9 4.2 92 0.5 NNW 37 44 20 24 987.2 - 0.0
04/03:30pm 5.3 -2.6 4.1 92 0.5 NNW 35 41 19 22 986.8 - 0.0
04/03:00pm 5.7 -1.8 4.7 93 0.4 NNW 33 39 18 21 986.5 986.8 0.0
04/02:30pm 5.9 -1.3 4.9 93 0.4 NNW 32 35 17 19 986.0 - 0.0
04/02:00pm 6.1 -0.7 4.9 92 0.5 NNW 30 35 16 19 985.5 - 0.0
04/01:30pm 6.2 -1.0 4.8 91 0.6 NNW 32 37 17 20 985.2 - 0.0
04/01:00pm 6.2 -0.7 4.8 91 0.6 NW 30 35 16 19 984.6 - 0.0
04/12:30pm 6.0 -0.5 4.8 92 0.5 NW 28 37 15 20 984.1 - 0.0
04/12:00pm 6.1 -0.3 5.2 94 0.4 NW 28 33 15 18 983.7 984.0 0.0
04/11:30am 6.0 -0.4 5.3 95 0.3 NNW 28 33 15 18 983.4 - 0.0
04/11:00am 5.8 -0.6 5.1 95 0.3 NNW 28 33 15 18 983.2 - 0.0
04/10:30am 5.7 -1.1 5.0 95 0.3 NNW 30 35 16 19 983.0 - 0.0
04/10:00am 5.7 -1.1 5.0 95 0.3 NNW 30 33 16 18 982.8 - 0.0
04/09:30am 5.5 -0.2 4.8 95 0.3 NNW 24 28 13 15 982.5 - 0.0
04/09:00am 5.3 -0.1 4.7 96 0.3 NNW 22 24 12 13 982.2 982.5 6.8
04/08:30am 5.2 0.2 4.6 96 0.3 NNW 20 24 11 13 982.0 - 6.8
04/08:00am 5.1 -0.7 4.5 96 0.3 N 24 28 13 15 982.0 - 6.8
04/07:30am 5.1 0.1 4.5 96 0.3 N 20 24 11 13 981.9 - 6.8
04/07:00am 5.1 -0.7 4.5 96 0.3 N 24 28 13 15 982.5 - 6.8
04/06:30am 5.1 -0.3 4.5 96 0.3 N 22 24 12 13 982.3 - 6.8
04/06:00am 5.1 0.1 4.5 96 0.3 NNW 20 24 11 13 982.3 982.6 6.8
04/05:30am 5.1 0.1 4.5 96 0.3 NW 20 26 11 14 981.9 - 6.8
04/05:00am 5.2 -1.3 4.6 96 0.3 NNW 28 33 15 18 982.2 - 6.8
04/04:30am 5.4 -1.1 4.5 94 0.4 NNW 28 33 15 18 982.1 - 6.8
04/04:00am 5.6 -2.7 4.4 92 0.5 NW 37 43 20 23 982.1 - 6.8
04/03:30am 5.6 -1.7 4.4 92 0.5 NW 32 39 17 21 982.2 - 6.8
04/03:00am 5.5 -0.3 4.5 93 0.4 NNW 24 33 13 18 981.6 981.9 6.8
04/02:30am 5.6 -2.3 4.4 92 0.5 NW 35 43 19 23 981.7 - 6.8
04/02:00am 5.6 -2.3 4.6 93 0.4 NW 35 43 19 23 981.6 - 6.8
04/01:30am 5.9 -3.0 5.2 95 0.3 NNW 41 48 22 26 981.4 - 6.8
04/01:00am 6.3 -1.7 5.9 97 0.2 NNW 37 44 20 24 980.5 - 6.8
04/12:30am 6.6 -1.7 6.3 98 0.1 NNW 39 46 21 25 980.6 - 6.8
04/12:00am 6.6 -2.1 6.2 97 0.2 N 41 48 22 26 979.9 980.2 6.8
 
Date/Time
EST
Temp
°C
App
Temp
°C
Dew
Point
Rel
Hum
%
Delta-T
°C
Wind Press
QNH
hPa
Press
MSL
hPa
Rain
since 9 am
mm
Dir
 
Spd
km/h
Gust
km/h
Spd
kts
Gust
kts
03/11:30pm 6.7 -1.5 6.4 98 0.1 N 39 46 21 25 980.4 - 6.8
03/11:00pm 6.6 -0.5 6.3 98 0.1 N 33 39 18 21 980.5 - 6.8
03/10:30pm 6.5 -1.8 6.2 98 0.1 N 39 46 21 25 980.7 - 6.8
03/10:00pm 6.7 0.2 6.4 98 0.1 N 30 37 16 20 980.8 - 6.2
03/09:58pm 6.7 0.6 6.4 98 0.1 N 28 37 15 20 980.9 - 6.2
03/09:30pm 6.2 2.4 5.9 98 0.1 NNW 15 17 8 9 981.1 - 5.4
03/09:00pm 6.4 3.0 6.0 97 0.2 NW 13 32 7 17 981.6 981.9 4.2
03/08:30pm 7.2 2.9 6.9 98 0.1 N 19 33 10 18 981.8 - 3.4
03/08:00pm 6.9 2.5 6.6 98 0.1 N 19 26 10 14 981.8 - 2.6
03/07:30pm 6.8 2.4 6.5 98 0.1 NE 19 26 10 14 982.1 - 2.0
03/07:00pm 6.8 1.8 6.5 98 0.1 NNE 22 32 12 17 982.3 - 1.0
03/06:30pm 6.7 1.7 6.4 98 0.1 NNE 22 32 12 17 982.6 - 0.4
03/06:00pm 6.6 1.6 6.3 98 0.1 NNE 22 30 12 16 982.8 983.1 0.2
03/05:30pm 6.4 1.3 6.1 98 0.1 N 22 28 12 15 983.2 - 0.2
03/05:00pm 6.3 0.8 6.0 98 0.1 N 24 30 13 16 983.6 - 0.2
03/04:30pm 6.0 1.2 5.7 98 0.1 N 20 24 11 13 983.7 - 0.2
03/04:00pm 5.9 0.3 5.6 98 0.1 N 24 28 13 15 983.8 - 0.2
03/03:30pm 6.0 -0.3 5.7 98 0.1 N 28 30 15 16 984.0 - 0.2
03/03:00pm 6.0 0.1 5.7 98 0.1 N 26 30 14 16 983.6 983.9 0.2
03/02:30pm 6.1 -0.6 5.7 97 0.2 NNW 30 32 16 17 983.3 - 0.2
03/02:00pm 6.3 -0.7 5.9 97 0.2 N 32 35 17 19 983.0 - 0.2
03/01:30pm 6.4 -0.2 6.1 98 0.1 N 30 35 16 19 983.1 - 0.2
03/01:00pm 6.5 -0.5 6.2 98 0.1 N 32 35 17 19 982.7 - 0.2
03/12:30pm 6.9 -0.9 6.6 98 0.1 N 37 41 20 22 982.6 - 0.2
03/12:00pm 7.5 -1.3 7.1 97 0.2 N 43 50 23 27 982.5 982.8 0.2
03/11:30am 7.9 -0.9 7.3 96 0.3 N 43 52 23 28 982.3 - 0.0
03/11:15am 8.5 -0.3 7.9 96 0.3 N 44 63 24 34 982.3 - 0.0
03/11:00am 8.4 -0.3 7.6 95 0.4 N 43 54 23 29 982.3 - 0.0
03/10:41am 8.5 0.7 8.1 97 0.2 N 39 57 21 31 982.3 - 0.0
03/10:30am 8.0 -0.4 7.4 96 0.3 N 41 50 22 27 982.7 - 0.0
03/10:00am 7.9 0.2 7.3 96 0.3 N 37 46 20 25 982.8 - 0.0
03/09:30am 7.3 0.3 6.9 97 0.2 N 33 41 18 22 983.2 - 0.0
03/09:00am 7.3 -0.4 6.9 97 0.2 N 37 48 20 26 983.4 983.7 9.6
03/08:30am 7.0 0.2 6.7 98 0.1 N 32 37 17 20 983.8 - 9.6
03/08:00am 6.3 0.8 6.0 98 0.1 N 24 33 13 18 984.3 - 9.6
03/07:30am 5.6 1.3 5.3 98 0.1 NNW 17 20 9 11 984.3 - 9.6
03/07:00am 5.4 1.8 5.1 98 0.1 NW 13 15 7 8 984.5 - 9.6
03/06:30am 5.3 0.4 5.0 98 0.1 NNW 20 24 11 13 984.6 - 9.6
03/06:00am 5.2 -0.9 4.9 98 0.1 NNW 26 30 14 16 984.4 984.7 9.6
03/05:30am 5.3 -1.9 4.9 97 0.2 NNW 32 41 17 22 984.2 - 9.6
03/05:00am 5.2 -2.0 4.8 97 0.2 NW 32 35 17 19 983.7 - 9.6
03/04:30am 5.1 -1.0 4.7 97 0.2 WNW 26 33 14 18 983.2 - 9.6
03/04:00am 4.9 -2.0 4.5 97 0.2 WNW 30 41 16 22 982.9 - 9.6
03/03:30am 4.9 -4.1 4.5 97 0.2 WNW 41 48 22 26 982.4 - 9.6
03/03:00am 4.8 -4.2 4.5 98 0.1 NW 41 48 22 26 981.8 982.1 9.6
03/02:30am 4.9 -4.5 4.6 98 0.1 NW 43 50 23 27 980.9 - 9.6
03/02:00am 5.1 -2.7 5.0 99 0.0 NW 35 41 19 22 980.2 - 9.6
03/01:30am 5.2 -1.2 5.1 99 0.0 WNW 28 33 15 18 979.6 - 9.6
03/01:00am 5.4 -0.6 5.3 99 0.0 NW 26 30 14 16 979.2 - 9.6
03/12:30am 5.8 0.6 5.7 99 0.0 NW 22 28 12 15 978.9 - 9.6
03/12:00am 6.2 2.8 6.1 99 0.0 NNW 13 17 7 9 978.4 978.7 9.4
 
Date/Time
EST
Temp
°C
App
Temp
°C
Dew
Point
Rel
Hum
%
Delta-T
°C
Wind Press
QNH
hPa
Press
MSL
hPa
Rain
since 9 am
mm
Dir
 
Spd
km/h
Gust
km/h
Spd
kts
Gust
kts
02/11:30pm 6.5 3.6 6.4 99 0.0 NW 11 13 6 7 977.9 - 9.4
02/11:00pm 6.1 3.5 6.0 99 0.0 NW 9 11 5 6 977.5 - 9.4
02/10:30pm 5.5 4.0 5.2 98 0.1 SE 2 7 1 4 977.3 - 9.4
02/10:00pm 5.4 2.6 5.1 98 0.1 SE 9 11 5 6 977.0 - 9.4
02/09:30pm 5.4 2.2 5.1 98 0.1 SSE 11 13 6 7 976.7 - 9.4
02/09:00pm 5.5 2.0 5.4 99 0.0 SSE 13 15 7 8 976.6 976.9 9.4
02/08:30pm 5.5 1.6 5.4 99 0.0 SSE 15 17 8 9 976.5 - 9.4
02/08:00pm 5.4 0.7 5.3 99 0.0 SSE 19 22 10 12 976.3 - 9.2
02/07:30pm 5.4 0.7 5.3 99 0.0 S 19 20 10 11 975.9 - 9.2
02/07:00pm 5.4 -0.2 5.3 99 0.0 S 24 28 13 15 976.2 - 9.2
02/06:30pm 5.4 0.5 5.3 99 0.0 S 20 24 11 13 976.0 - 9.2
02/06:00pm 5.5 -0.1 5.2 98 0.1 S 24 26 13 14 976.2 976.5 9.2
02/05:30pm 5.8 0.3 5.7 99 0.0 S 24 32 13 17 976.1 - 9.2
02/05:00pm 5.8 0.2 5.5 98 0.1 S 24 28 13 15 976.4 - 9.2
02/04:30pm 5.6 -0.8 5.3 98 0.1 S 28 32 15 17 976.3 - 9.2
02/04:00pm 5.5 -1.3 5.2 98 0.1 SSE 30 33 16 18 976.7 - 9.2
02/03:30pm 5.5 -1.7 5.2 98 0.1 SSE 32 37 17 20 977.0 - 9.0
02/03:00pm 5.5 -1.9 5.2 98 0.1 SSE 33 43 18 23 977.6 977.9 9.0
02/02:30pm 5.4 -3.1 5.1 98 0.1 SSE 39 46 21 25 978.4 - 9.0
02/02:00pm 5.3 -4.2 5.0 98 0.1 SSE 44 57 24 31 978.7 - 8.8
02/01:30pm 5.3 -4.0 5.0 98 0.1 SE 43 56 23 30 979.4 - 8.0
02/01:00pm 5.3 -4.0 5.0 98 0.1 SE 43 56 23 30 980.2 - 5.8

Other Formats:

Comma delimited format used in spreadsheet applications
http://www.bom.gov.au/fwo/IDT60801/IDT60801.94998.axf

JavaScript Object Notation format (JSON) in row-major order
http://www.bom.gov.au/fwo/IDT60801/IDT60801.94998.json